sensor_id;sensor_type;location;lat;lon;timestamp;P1;durP1;ratioP1;P2;durP2;ratioP2
22881;SDS011;11608;50.894;5.296;2022-07-23T00:02:07;23.40;;;21.40;;
22881;SDS011;11608;50.894;5.296;2022-07-23T00:04:33;23.35;;;21.38;;
22881;SDS011;11608;50.894;5.296;2022-07-23T00:06:59;23.90;;;21.80;;
22881;SDS011;11608;50.894;5.296;2022-07-23T00:09:25;24.58;;;22.02;;
22881;SDS011;11608;50.894;5.296;2022-07-23T00:11:53;22.83;;;20.85;;
22881;SDS011;11608;50.894;5.296;2022-07-23T00:14:19;22.65;;;20.80;;
22881;SDS011;11608;50.894;5.296;2022-07-23T00:16:45;22.80;;;20.92;;
22881;SDS011;11608;50.894;5.296;2022-07-23T00:19:11;22.90;;;21.00;;
22881;SDS011;11608;50.894;5.296;2022-07-23T00:21:37;23.92;;;21.77;;
22881;SDS011;11608;50.894;5.296;2022-07-23T00:24:03;23.60;;;21.70;;
22881;SDS011;11608;50.894;5.296;2022-07-23T00:26:29;25.15;;;22.77;;
22881;SDS011;11608;50.894;5.296;2022-07-23T00:28:55;25.27;;;22.95;;
22881;SDS011;11608;50.894;5.296;2022-07-23T00:31:21;24.23;;;22.42;;
22881;SDS011;11608;50.894;5.296;2022-07-23T00:33:47;24.30;;;22.33;;
22881;SDS011;11608;50.894;5.296;2022-07-23T00:36:13;23.63;;;21.65;;
22881;SDS011;11608;50.894;5.296;2022-07-23T00:38:39;24.58;;;22.35;;
22881;SDS011;11608;50.894;5.296;2022-07-23T00:41:05;23.48;;;21.58;;
22881;SDS011;11608;50.894;5.296;2022-07-23T00:43:31;24.63;;;22.50;;
22881;SDS011;11608;50.894;5.296;2022-07-23T00:45:57;24.73;;;22.48;;
22881;SDS011;11608;50.894;5.296;2022-07-23T00:48:23;24.00;;;22.08;;
22881;SDS011;11608;50.894;5.296;2022-07-23T00:50:49;23.25;;;21.42;;
22881;SDS011;11608;50.894;5.296;2022-07-23T00:53:15;23.77;;;21.48;;
22881;SDS011;11608;50.894;5.296;2022-07-23T00:55:42;23.83;;;21.83;;
22881;SDS011;11608;50.894;5.296;2022-07-23T00:58:08;23.65;;;21.73;;
22881;SDS011;11608;50.894;5.296;2022-07-23T01:00:34;23.88;;;21.83;;
22881;SDS011;11608;50.894;5.296;2022-07-23T01:03:00;23.10;;;21.30;;
22881;SDS011;11608;50.894;5.296;2022-07-23T01:05:26;23.17;;;21.38;;
22881;SDS011;11608;50.894;5.296;2022-07-23T01:07:53;23.55;;;21.77;;
22881;SDS011;11608;50.894;5.296;2022-07-23T01:10:19;24.20;;;22.05;;
22881;SDS011;11608;50.894;5.296;2022-07-23T01:12:57;23.75;;;21.70;;
22881;SDS011;11608;50.894;5.296;2022-07-23T01:15:23;23.38;;;21.60;;
22881;SDS011;11608;50.894;5.296;2022-07-23T01:17:50;24.42;;;22.40;;
22881;SDS011;11608;50.894;5.296;2022-07-23T01:20:16;23.17;;;21.38;;
22881;SDS011;11608;50.894;5.296;2022-07-23T01:22:42;23.45;;;21.52;;
22881;SDS011;11608;50.894;5.296;2022-07-23T01:25:08;24.60;;;22.48;;
22881;SDS011;11608;50.894;5.296;2022-07-23T01:27:34;24.02;;;22.10;;
22881;SDS011;11608;50.894;5.296;2022-07-23T01:30:00;24.25;;;22.45;;
22881;SDS011;11608;50.894;5.296;2022-07-23T01:32:26;22.90;;;21.13;;
22881;SDS011;11608;50.894;5.296;2022-07-23T01:34:52;24.02;;;21.95;;
22881;SDS011;11608;50.894;5.296;2022-07-23T01:37:18;24.00;;;21.95;;
22881;SDS011;11608;50.894;5.296;2022-07-23T01:39:44;23.83;;;22.02;;
22881;SDS011;11608;50.894;5.296;2022-07-23T01:42:10;24.33;;;22.25;;
22881;SDS011;11608;50.894;5.296;2022-07-23T01:44:36;23.95;;;21.90;;
22881;SDS011;11608;50.894;5.296;2022-07-23T01:47:02;23.58;;;21.75;;
22881;SDS011;11608;50.894;5.296;2022-07-23T01:49:28;23.23;;;21.45;;
22881;SDS011;11608;50.894;5.296;2022-07-23T01:51:54;22.83;;;21.10;;
22881;SDS011;11608;50.894;5.296;2022-07-23T01:54:30;22.75;;;21.05;;
22881;SDS011;11608;50.894;5.296;2022-07-23T01:56:57;23.05;;;21.35;;
22881;SDS011;11608;50.894;5.296;2022-07-23T01:59:23;22.83;;;21.23;;
22881;SDS011;11608;50.894;5.296;2022-07-23T02:01:49;23.15;;;21.35;;
22881;SDS011;11608;50.894;5.296;2022-07-23T02:04:19;23.63;;;21.90;;
22881;SDS011;11608;50.894;5.296;2022-07-23T02:06:45;23.98;;;21.98;;
22881;SDS011;11608;50.894;5.296;2022-07-23T02:09:11;24.73;;;22.55;;
22881;SDS011;11608;50.894;5.296;2022-07-23T02:11:38;23.15;;;21.25;;
22881;SDS011;11608;50.894;5.296;2022-07-23T02:14:04;24.20;;;22.27;;
22881;SDS011;11608;50.894;5.296;2022-07-23T02:16:30;23.10;;;21.05;;
22881;SDS011;11608;50.894;5.296;2022-07-23T02:18:56;24.23;;;22.20;;
22881;SDS011;11608;50.894;5.296;2022-07-23T02:21:22;24.48;;;22.45;;
22881;SDS011;11608;50.894;5.296;2022-07-23T02:23:48;24.65;;;22.77;;
22881;SDS011;11608;50.894;5.296;2022-07-23T02:26:14;23.85;;;21.90;;
22881;SDS011;11608;50.894;5.296;2022-07-23T02:28:40;24.15;;;22.13;;
22881;SDS011;11608;50.894;5.296;2022-07-23T02:31:06;24.27;;;22.17;;
22881;SDS011;11608;50.894;5.296;2022-07-23T02:33:33;23.63;;;21.73;;
22881;SDS011;11608;50.894;5.296;2022-07-23T02:35:59;22.88;;;21.15;;
22881;SDS011;11608;50.894;5.296;2022-07-23T02:38:25;24.63;;;22.63;;
22881;SDS011;11608;50.894;5.296;2022-07-23T02:40:51;24.65;;;22.63;;
22881;SDS011;11608;50.894;5.296;2022-07-23T02:43:17;23.90;;;22.10;;
22881;SDS011;11608;50.894;5.296;2022-07-23T02:45:43;23.77;;;21.92;;
22881;SDS011;11608;50.894;5.296;2022-07-23T02:48:09;24.42;;;22.42;;
22881;SDS011;11608;50.894;5.296;2022-07-23T02:50:37;23.85;;;22.05;;
22881;SDS011;11608;50.894;5.296;2022-07-23T02:53:03;23.08;;;21.38;;
22881;SDS011;11608;50.894;5.296;2022-07-23T02:55:30;22.55;;;20.92;;
22881;SDS011;11608;50.894;5.296;2022-07-23T02:57:56;22.83;;;21.23;;
22881;SDS011;11608;50.894;5.296;2022-07-23T03:00:22;22.70;;;20.90;;
22881;SDS011;11608;50.894;5.296;2022-07-23T03:02:48;21.70;;;20.23;;
22881;SDS011;11608;50.894;5.296;2022-07-23T03:05:14;22.55;;;20.92;;
22881;SDS011;11608;50.894;5.296;2022-07-23T03:07:40;22.67;;;21.05;;
22881;SDS011;11608;50.894;5.296;2022-07-23T03:10:06;23.08;;;21.23;;
22881;SDS011;11608;50.894;5.296;2022-07-23T03:12:32;21.63;;;19.92;;
22881;SDS011;11608;50.894;5.296;2022-07-23T03:14:58;21.20;;;19.85;;
22881;SDS011;11608;50.894;5.296;2022-07-23T03:17:24;23.20;;;21.20;;
22881;SDS011;11608;50.894;5.296;2022-07-23T03:19:50;22.08;;;20.45;;
22881;SDS011;11608;50.894;5.296;2022-07-23T03:22:16;23.20;;;21.42;;
22881;SDS011;11608;50.894;5.296;2022-07-23T03:24:42;23.40;;;21.40;;
22881;SDS011;11608;50.894;5.296;2022-07-23T03:27:21;23.08;;;21.45;;
22881;SDS011;11608;50.894;5.296;2022-07-23T03:29:47;22.73;;;20.73;;
22881;SDS011;11608;50.894;5.296;2022-07-23T03:32:13;22.40;;;20.70;;
22881;SDS011;11608;50.894;5.296;2022-07-23T03:34:39;22.70;;;21.05;;
22881;SDS011;11608;50.894;5.296;2022-07-23T03:37:05;22.42;;;20.83;;
22881;SDS011;11608;50.894;5.296;2022-07-23T03:39:31;23.27;;;21.45;;
22881;SDS011;11608;50.894;5.296;2022-07-23T03:41:57;21.48;;;20.08;;
22881;SDS011;11608;50.894;5.296;2022-07-23T03:44:23;22.42;;;20.58;;
22881;SDS011;11608;50.894;5.296;2022-07-23T03:46:49;22.70;;;20.90;;
22881;SDS011;11608;50.894;5.296;2022-07-23T03:49:15;22.38;;;20.67;;
22881;SDS011;11608;50.894;5.296;2022-07-23T03:51:41;22.05;;;20.25;;
22881;SDS011;11608;50.894;5.296;2022-07-23T03:54:07;22.92;;;20.92;;
22881;SDS011;11608;50.894;5.296;2022-07-23T03:56:33;22.52;;;20.83;;
22881;SDS011;11608;50.894;5.296;2022-07-23T03:58:59;22.80;;;21.20;;
22881;SDS011;11608;50.894;5.296;2022-07-23T04:01:26;22.45;;;20.85;;
22881;SDS011;11608;50.894;5.296;2022-07-23T04:03:52;21.92;;;20.42;;
22881;SDS011;11608;50.894;5.296;2022-07-23T04:06:18;21.33;;;19.73;;
22881;SDS011;11608;50.894;5.296;2022-07-23T04:08:44;21.45;;;19.73;;
22881;SDS011;11608;50.894;5.296;2022-07-23T04:11:10;22.45;;;20.85;;
22881;SDS011;11608;50.894;5.296;2022-07-23T04:13:36;21.33;;;19.67;;
22881;SDS011;11608;50.894;5.296;2022-07-23T04:16:02;20.83;;;19.30;;
22881;SDS011;11608;50.894;5.296;2022-07-23T04:18:28;20.23;;;18.73;;
22881;SDS011;11608;50.894;5.296;2022-07-23T04:20:55;21.20;;;19.80;;
22881;SDS011;11608;50.894;5.296;2022-07-23T04:23:21;21.42;;;19.75;;
22881;SDS011;11608;50.894;5.296;2022-07-23T04:25:47;21.80;;;20.00;;
22881;SDS011;11608;50.894;5.296;2022-07-23T04:28:13;20.95;;;19.48;;
22881;SDS011;11608;50.894;5.296;2022-07-23T04:30:39;20.55;;;19.00;;
22881;SDS011;11608;50.894;5.296;2022-07-23T04:33:05;21.02;;;19.52;;
22881;SDS011;11608;50.894;5.296;2022-07-23T04:35:32;20.98;;;19.15;;
22881;SDS011;11608;50.894;5.296;2022-07-23T04:37:58;20.55;;;19.00;;
22881;SDS011;11608;50.894;5.296;2022-07-23T04:40:24;21.00;;;19.40;;
22881;SDS011;11608;50.894;5.296;2022-07-23T04:42:50;20.40;;;18.90;;
22881;SDS011;11608;50.894;5.296;2022-07-23T04:45:16;20.42;;;19.02;;
22881;SDS011;11608;50.894;5.296;2022-07-23T04:47:42;19.58;;;18.27;;
22881;SDS011;11608;50.894;5.296;2022-07-23T04:50:08;19.50;;;18.10;;
22881;SDS011;11608;50.894;5.296;2022-07-23T04:52:34;20.52;;;18.65;;
22881;SDS011;11608;50.894;5.296;2022-07-23T04:55:01;20.65;;;19.08;;
22881;SDS011;11608;50.894;5.296;2022-07-23T04:57:27;21.65;;;19.80;;
22881;SDS011;11608;50.894;5.296;2022-07-23T04:59:53;20.83;;;19.13;;
22881;SDS011;11608;50.894;5.296;2022-07-23T05:02:19;19.95;;;18.35;;
22881;SDS011;11608;50.894;5.296;2022-07-23T05:04:45;20.20;;;18.65;;
22881;SDS011;11608;50.894;5.296;2022-07-23T05:07:11;20.23;;;18.70;;
22881;SDS011;11608;50.894;5.296;2022-07-23T05:09:37;21.85;;;19.95;;
22881;SDS011;11608;50.894;5.296;2022-07-23T05:12:03;22.00;;;20.10;;
22881;SDS011;11608;50.894;5.296;2022-07-23T05:14:29;22.52;;;20.50;;
22881;SDS011;11608;50.894;5.296;2022-07-23T05:16:55;23.42;;;21.42;;
22881;SDS011;11608;50.894;5.296;2022-07-23T05:19:21;24.23;;;21.02;;
22881;SDS011;11608;50.894;5.296;2022-07-23T05:21:47;23.23;;;21.30;;
22881;SDS011;11608;50.894;5.296;2022-07-23T05:24:13;23.10;;;21.10;;
22881;SDS011;11608;50.894;5.296;2022-07-23T05:26:42;23.15;;;21.15;;
22881;SDS011;11608;50.894;5.296;2022-07-23T05:29:08;23.92;;;21.70;;
22881;SDS011;11608;50.894;5.296;2022-07-23T05:31:34;24.38;;;21.98;;
22881;SDS011;11608;50.894;5.296;2022-07-23T05:34:00;24.27;;;22.20;;
22881;SDS011;11608;50.894;5.296;2022-07-23T05:36:26;24.73;;;22.63;;
22881;SDS011;11608;50.894;5.296;2022-07-23T05:38:52;23.45;;;21.65;;
22881;SDS011;11608;50.894;5.296;2022-07-23T05:41:18;24.20;;;22.20;;
22881;SDS011;11608;50.894;5.296;2022-07-23T05:43:44;24.35;;;22.33;;
22881;SDS011;11608;50.894;5.296;2022-07-23T05:46:10;24.92;;;22.92;;
22881;SDS011;11608;50.894;5.296;2022-07-23T05:48:36;24.63;;;22.80;;
22881;SDS011;11608;50.894;5.296;2022-07-23T05:51:02;25.95;;;23.55;;
22881;SDS011;11608;50.894;5.296;2022-07-23T05:53:31;25.63;;;23.40;;
22881;SDS011;11608;50.894;5.296;2022-07-23T05:56:00;24.58;;;22.60;;
22881;SDS011;11608;50.894;5.296;2022-07-23T05:58:26;25.92;;;23.67;;
22881;SDS011;11608;50.894;5.296;2022-07-23T06:00:52;26.13;;;23.77;;
22881;SDS011;11608;50.894;5.296;2022-07-23T06:03:18;26.33;;;24.25;;
22881;SDS011;11608;50.894;5.296;2022-07-23T06:05:45;26.58;;;24.38;;
22881;SDS011;11608;50.894;5.296;2022-07-23T06:08:11;26.25;;;23.95;;
22881;SDS011;11608;50.894;5.296;2022-07-23T06:10:37;27.25;;;24.80;;
22881;SDS011;11608;50.894;5.296;2022-07-23T06:13:03;27.75;;;25.35;;
22881;SDS011;11608;50.894;5.296;2022-07-23T06:15:29;25.20;;;23.30;;
22881;SDS011;11608;50.894;5.296;2022-07-23T06:17:55;26.08;;;23.88;;
22881;SDS011;11608;50.894;5.296;2022-07-23T06:20:21;26.02;;;24.05;;
22881;SDS011;11608;50.894;5.296;2022-07-23T06:22:47;26.08;;;24.13;;
22881;SDS011;11608;50.894;5.296;2022-07-23T06:25:13;27.77;;;25.45;;
22881;SDS011;11608;50.894;5.296;2022-07-23T06:27:41;27.88;;;25.55;;
22881;SDS011;11608;50.894;5.296;2022-07-23T06:30:07;27.00;;;24.88;;
22881;SDS011;11608;50.894;5.296;2022-07-23T06:32:35;26.75;;;24.85;;
22881;SDS011;11608;50.894;5.296;2022-07-23T06:35:01;28.05;;;25.85;;
22881;SDS011;11608;50.894;5.296;2022-07-23T06:37:27;28.38;;;26.20;;
22881;SDS011;11608;50.894;5.296;2022-07-23T06:39:53;28.55;;;26.23;;
22881;SDS011;11608;50.894;5.296;2022-07-23T06:42:21;27.13;;;25.00;;
22881;SDS011;11608;50.894;5.296;2022-07-23T06:44:48;28.27;;;25.95;;
22881;SDS011;11608;50.894;5.296;2022-07-23T06:47:14;27.60;;;25.40;;
22881;SDS011;11608;50.894;5.296;2022-07-23T06:49:40;28.35;;;25.85;;
22881;SDS011;11608;50.894;5.296;2022-07-23T06:52:06;28.75;;;26.23;;
22881;SDS011;11608;50.894;5.296;2022-07-23T06:54:32;25.95;;;23.70;;
22881;SDS011;11608;50.894;5.296;2022-07-23T06:56:58;27.65;;;25.48;;
22881;SDS011;11608;50.894;5.296;2022-07-23T06:59:24;26.92;;;24.88;;
22881;SDS011;11608;50.894;5.296;2022-07-23T07:01:50;29.13;;;26.48;;
22881;SDS011;11608;50.894;5.296;2022-07-23T07:04:16;28.85;;;26.25;;
22881;SDS011;11608;50.894;5.296;2022-07-23T07:06:42;28.35;;;26.05;;
22881;SDS011;11608;50.894;5.296;2022-07-23T07:09:08;28.25;;;26.02;;
22881;SDS011;11608;50.894;5.296;2022-07-23T07:11:34;28.50;;;26.35;;
22881;SDS011;11608;50.894;5.296;2022-07-23T07:14:00;29.30;;;27.00;;
22881;SDS011;11608;50.894;5.296;2022-07-23T07:16:26;29.60;;;27.17;;
22881;SDS011;11608;50.894;5.296;2022-07-23T07:18:52;28.95;;;26.52;;
22881;SDS011;11608;50.894;5.296;2022-07-23T07:21:18;29.00;;;26.60;;
22881;SDS011;11608;50.894;5.296;2022-07-23T07:23:44;28.10;;;25.88;;
22881;SDS011;11608;50.894;5.296;2022-07-23T07:26:10;28.58;;;26.33;;
22881;SDS011;11608;50.894;5.296;2022-07-23T07:28:36;29.17;;;26.88;;
22881;SDS011;11608;50.894;5.296;2022-07-23T07:31:03;29.35;;;26.92;;
22881;SDS011;11608;50.894;5.296;2022-07-23T07:33:29;27.95;;;25.73;;
22881;SDS011;11608;50.894;5.296;2022-07-23T07:35:55;28.08;;;25.60;;
22881;SDS011;11608;50.894;5.296;2022-07-23T07:38:21;28.35;;;26.05;;
22881;SDS011;11608;50.894;5.296;2022-07-23T07:40:47;29.00;;;26.58;;
22881;SDS011;11608;50.894;5.296;2022-07-23T07:43:15;29.02;;;26.58;;
22881;SDS011;11608;50.894;5.296;2022-07-23T07:45:41;28.48;;;26.17;;
22881;SDS011;11608;50.894;5.296;2022-07-23T07:48:07;28.13;;;26.02;;
22881;SDS011;11608;50.894;5.296;2022-07-23T07:50:33;29.58;;;27.08;;
22881;SDS011;11608;50.894;5.296;2022-07-23T07:53:01;28.77;;;26.35;;
22881;SDS011;11608;50.894;5.296;2022-07-23T07:55:27;29.02;;;26.63;;
22881;SDS011;11608;50.894;5.296;2022-07-23T07:57:53;28.25;;;25.98;;
22881;SDS011;11608;50.894;5.296;2022-07-23T08:00:19;28.20;;;25.90;;
22881;SDS011;11608;50.894;5.296;2022-07-23T08:02:51;28.95;;;26.50;;
22881;SDS011;11608;50.894;5.296;2022-07-23T08:05:28;28.40;;;26.05;;
22881;SDS011;11608;50.894;5.296;2022-07-23T08:07:55;27.90;;;25.63;;
22881;SDS011;11608;50.894;5.296;2022-07-23T08:10:21;27.48;;;25.17;;
22881;SDS011;11608;50.894;5.296;2022-07-23T08:12:51;29.05;;;26.73;;
22881;SDS011;11608;50.894;5.296;2022-07-23T08:15:25;28.38;;;26.17;;
22881;SDS011;11608;50.894;5.296;2022-07-23T08:17:51;27.88;;;25.65;;
22881;SDS011;11608;50.894;5.296;2022-07-23T08:20:18;29.27;;;26.27;;
22881;SDS011;11608;50.894;5.296;2022-07-23T08:22:49;28.95;;;26.73;;
22881;SDS011;11608;50.894;5.296;2022-07-23T08:25:16;28.25;;;26.08;;
22881;SDS011;11608;50.894;5.296;2022-07-23T08:27:45;28.77;;;26.27;;
22881;SDS011;11608;50.894;5.296;2022-07-23T08:30:11;26.83;;;24.77;;
22881;SDS011;11608;50.894;5.296;2022-07-23T08:35:23;30.55;;;27.95;;
22881;SDS011;11608;50.894;5.296;2022-07-23T08:37:50;31.17;;;28.42;;
22881;SDS011;11608;50.894;5.296;2022-07-23T08:40:16;29.27;;;26.88;;
22881;SDS011;11608;50.894;5.296;2022-07-23T08:42:42;29.05;;;26.85;;
22881;SDS011;11608;50.894;5.296;2022-07-23T08:45:09;28.98;;;26.77;;
22881;SDS011;11608;50.894;5.296;2022-07-23T08:47:37;29.25;;;27.02;;
22881;SDS011;11608;50.894;5.296;2022-07-23T08:50:03;27.02;;;24.83;;
22881;SDS011;11608;50.894;5.296;2022-07-23T08:52:30;26.98;;;24.92;;
22881;SDS011;11608;50.894;5.296;2022-07-23T08:54:56;27.98;;;25.65;;
22881;SDS011;11608;50.894;5.296;2022-07-23T08:57:22;28.65;;;26.42;;
22881;SDS011;11608;50.894;5.296;2022-07-23T08:59:48;27.58;;;25.55;;
22881;SDS011;11608;50.894;5.296;2022-07-23T09:02:14;29.08;;;26.63;;
22881;SDS011;11608;50.894;5.296;2022-07-23T09:04:41;26.98;;;24.80;;
22881;SDS011;11608;50.894;5.296;2022-07-23T09:07:06;27.65;;;25.40;;
22881;SDS011;11608;50.894;5.296;2022-07-23T09:09:33;28.05;;;25.73;;
22881;SDS011;11608;50.894;5.296;2022-07-23T09:12:04;28.23;;;26.02;;
22881;SDS011;11608;50.894;5.296;2022-07-23T09:14:37;27.63;;;25.38;;
22881;SDS011;11608;50.894;5.296;2022-07-23T09:17:13;26.73;;;24.63;;
22881;SDS011;11608;50.894;5.296;2022-07-23T09:19:40;26.08;;;23.88;;
22881;SDS011;11608;50.894;5.296;2022-07-23T09:22:23;25.95;;;23.75;;
22881;SDS011;11608;50.894;5.296;2022-07-23T09:27:45;23.85;;;22.10;;
22881;SDS011;11608;50.894;5.296;2022-07-23T09:30:12;25.85;;;23.67;;
22881;SDS011;11608;50.894;5.296;2022-07-23T09:32:41;24.60;;;22.45;;
22881;SDS011;11608;50.894;5.296;2022-07-23T09:35:08;25.95;;;23.85;;
22881;SDS011;11608;50.894;5.296;2022-07-23T09:37:34;26.42;;;24.30;;
22881;SDS011;11608;50.894;5.296;2022-07-23T09:40:07;25.10;;;22.95;;
22881;SDS011;11608;50.894;5.296;2022-07-23T09:42:33;25.75;;;23.83;;
22881;SDS011;11608;50.894;5.296;2022-07-23T09:45:00;27.38;;;25.13;;
22881;SDS011;11608;50.894;5.296;2022-07-23T09:47:29;26.80;;;24.60;;
22881;SDS011;11608;50.894;5.296;2022-07-23T09:52:34;23.90;;;22.00;;
22881;SDS011;11608;50.894;5.296;2022-07-23T09:55:01;22.67;;;20.98;;
22881;SDS011;11608;50.894;5.296;2022-07-23T09:57:28;24.70;;;22.95;;
22881;SDS011;11608;50.894;5.296;2022-07-23T09:59:56;25.00;;;23.17;;
22881;SDS011;11608;50.894;5.296;2022-07-23T10:02:23;21.95;;;20.35;;
22881;SDS011;11608;50.894;5.296;2022-07-23T10:04:50;24.98;;;22.60;;
22881;SDS011;11608;50.894;5.296;2022-07-23T10:07:17;23.92;;;22.23;;
22881;SDS011;11608;50.894;5.296;2022-07-23T10:09:43;24.70;;;22.70;;
22881;SDS011;11608;50.894;5.296;2022-07-23T10:12:11;24.15;;;22.30;;
22881;SDS011;11608;50.894;5.296;2022-07-23T10:15:16;24.77;;;23.08;;
22881;SDS011;11608;50.894;5.296;2022-07-23T10:17:42;22.50;;;20.90;;
22881;SDS011;11608;50.894;5.296;2022-07-23T10:20:08;23.35;;;21.65;;
22881;SDS011;11608;50.894;5.296;2022-07-23T10:22:42;23.55;;;21.83;;
22881;SDS011;11608;50.894;5.296;2022-07-23T10:33:14;20.73;;;19.20;;
22881;SDS011;11608;50.894;5.296;2022-07-23T10:38:21;22.17;;;20.48;;
22881;SDS011;11608;50.894;5.296;2022-07-23T10:40:56;22.92;;;21.20;;
22881;SDS011;11608;50.894;5.296;2022-07-23T10:43:22;22.60;;;21.00;;
22881;SDS011;11608;50.894;5.296;2022-07-23T10:45:48;21.08;;;19.52;;
22881;SDS011;11608;50.894;5.296;2022-07-23T10:48:17;21.35;;;19.73;;
22881;SDS011;11608;50.894;5.296;2022-07-23T10:50:44;21.55;;;20.15;;
22881;SDS011;11608;50.894;5.296;2022-07-23T10:53:29;21.55;;;20.05;;
22881;SDS011;11608;50.894;5.296;2022-07-23T10:56:15;21.67;;;20.27;;
22881;SDS011;11608;50.894;5.296;2022-07-23T10:58:48;21.38;;;19.77;;
22881;SDS011;11608;50.894;5.296;2022-07-23T11:03:59;21.80;;;20.20;;
22881;SDS011;11608;50.894;5.296;2022-07-23T11:07:11;22.67;;;20.85;;
22881;SDS011;11608;50.894;5.296;2022-07-23T11:09:28;21.80;;;20.20;;
22881;SDS011;11608;50.894;5.296;2022-07-23T11:17:23;19.83;;;18.42;;
22881;SDS011;11608;50.894;5.296;2022-07-23T11:25:10;20.05;;;18.55;;
22881;SDS011;11608;50.894;5.296;2022-07-23T11:27:43;19.95;;;18.65;;
22881;SDS011;11608;50.894;5.296;2022-07-23T11:30:11;19.00;;;17.80;;
22881;SDS011;11608;50.894;5.296;2022-07-23T11:35:34;19.50;;;18.20;;
22881;SDS011;11608;50.894;5.296;2022-07-23T11:40:30;19.15;;;17.95;;
22881;SDS011;11608;50.894;5.296;2022-07-23T11:43:00;18.70;;;17.50;;
22881;SDS011;11608;50.894;5.296;2022-07-23T11:45:30;19.00;;;17.70;;
22881;SDS011;11608;50.894;5.296;2022-07-23T11:47:56;19.60;;;18.30;;
22881;SDS011;11608;50.894;5.296;2022-07-23T11:50:23;20.15;;;18.95;;
22881;SDS011;11608;50.894;5.296;2022-07-23T11:52:53;19.80;;;18.58;;
22881;SDS011;11608;50.894;5.296;2022-07-23T11:55:19;18.40;;;17.30;;
22881;SDS011;11608;50.894;5.296;2022-07-23T11:57:45;18.60;;;17.50;;
22881;SDS011;11608;50.894;5.296;2022-07-23T12:00:13;19.60;;;18.30;;
22881;SDS011;11608;50.894;5.296;2022-07-23T12:02:40;20.15;;;18.67;;
22881;SDS011;11608;50.894;5.296;2022-07-23T12:05:06;19.30;;;17.92;;
22881;SDS011;11608;50.894;5.296;2022-07-23T12:07:41;18.40;;;17.30;;
22881;SDS011;11608;50.894;5.296;2022-07-23T12:10:15;19.63;;;18.25;;
22881;SDS011;11608;50.894;5.296;2022-07-23T12:12:43;19.40;;;18.20;;
22881;SDS011;11608;50.894;5.296;2022-07-23T12:15:10;19.92;;;18.63;;
22881;SDS011;11608;50.894;5.296;2022-07-23T12:17:41;20.02;;;18.73;;
22881;SDS011;11608;50.894;5.296;2022-07-23T12:20:08;19.83;;;18.42;;
22881;SDS011;11608;50.894;5.296;2022-07-23T12:22:39;19.25;;;18.00;;
22881;SDS011;11608;50.894;5.296;2022-07-23T12:25:07;20.15;;;18.80;;
22881;SDS011;11608;50.894;5.296;2022-07-23T12:27:34;19.25;;;18.05;;
22881;SDS011;11608;50.894;5.296;2022-07-23T12:30:14;20.13;;;18.83;;
22881;SDS011;11608;50.894;5.296;2022-07-23T12:32:42;19.42;;;18.23;;
22881;SDS011;11608;50.894;5.296;2022-07-23T12:35:09;19.48;;;18.10;;
22881;SDS011;11608;50.894;5.296;2022-07-23T12:37:39;19.83;;;18.52;;
22881;SDS011;11608;50.894;5.296;2022-07-23T12:43:06;20.55;;;19.05;;
22881;SDS011;11608;50.894;5.296;2022-07-23T12:48:24;19.42;;;18.13;;
22881;SDS011;11608;50.894;5.296;2022-07-23T12:50:57;19.30;;;18.10;;
22881;SDS011;11608;50.894;5.296;2022-07-23T12:53:25;19.42;;;18.13;;
22881;SDS011;11608;50.894;5.296;2022-07-23T12:56:13;19.38;;;18.00;;
22881;SDS011;11608;50.894;5.296;2022-07-23T13:01:06;18.45;;;17.35;;
22881;SDS011;11608;50.894;5.296;2022-07-23T13:03:37;18.73;;;17.42;;
22881;SDS011;11608;50.894;5.296;2022-07-23T13:06:04;19.15;;;17.95;;
22881;SDS011;11608;50.894;5.296;2022-07-23T13:08:31;19.73;;;18.40;;
22881;SDS011;11608;50.894;5.296;2022-07-23T13:10:58;20.27;;;18.98;;
22881;SDS011;11608;50.894;5.296;2022-07-23T13:13:25;19.20;;;18.00;;
22881;SDS011;11608;50.894;5.296;2022-07-23T13:15:52;19.58;;;18.38;;
22881;SDS011;11608;50.894;5.296;2022-07-23T13:18:18;19.00;;;17.70;;
22881;SDS011;11608;50.894;5.296;2022-07-23T13:20:45;19.50;;;18.30;;
22881;SDS011;11608;50.894;5.296;2022-07-23T13:23:12;19.88;;;18.48;;
22881;SDS011;11608;50.894;5.296;2022-07-23T13:25:41;20.88;;;19.38;;
22881;SDS011;11608;50.894;5.296;2022-07-23T13:28:07;19.35;;;18.00;;
22881;SDS011;11608;50.894;5.296;2022-07-23T13:30:33;20.02;;;18.63;;
22881;SDS011;11608;50.894;5.296;2022-07-23T13:33:00;19.15;;;17.80;;
22881;SDS011;11608;50.894;5.296;2022-07-23T13:35:29;19.13;;;17.80;;
22881;SDS011;11608;50.894;5.296;2022-07-23T13:37:55;20.00;;;18.60;;
22881;SDS011;11608;50.894;5.296;2022-07-23T13:40:21;19.30;;;18.00;;
22881;SDS011;11608;50.894;5.296;2022-07-23T13:42:47;20.45;;;18.95;;
22881;SDS011;11608;50.894;5.296;2022-07-23T13:45:14;20.02;;;18.77;;
22881;SDS011;11608;50.894;5.296;2022-07-23T13:47:40;20.27;;;18.98;;
22881;SDS011;11608;50.894;5.296;2022-07-23T13:50:06;20.42;;;18.92;;
22881;SDS011;11608;50.894;5.296;2022-07-23T13:52:32;20.90;;;19.40;;
22881;SDS011;11608;50.894;5.296;2022-07-23T13:55:00;20.13;;;18.83;;
22881;SDS011;11608;50.894;5.296;2022-07-23T13:57:26;20.02;;;18.73;;
22881;SDS011;11608;50.894;5.296;2022-07-23T13:59:54;19.77;;;18.58;;
22881;SDS011;11608;50.894;5.296;2022-07-23T14:02:21;19.52;;;18.23;;
22881;SDS011;11608;50.894;5.296;2022-07-23T14:04:47;20.05;;;18.75;;
22881;SDS011;11608;50.894;5.296;2022-07-23T14:07:13;20.13;;;18.77;;
22881;SDS011;11608;50.894;5.296;2022-07-23T14:09:39;19.45;;;18.25;;
22881;SDS011;11608;50.894;5.296;2022-07-23T14:12:05;19.35;;;18.02;;
22881;SDS011;11608;50.894;5.296;2022-07-23T14:14:31;19.27;;;17.60;;
22881;SDS011;11608;50.894;5.296;2022-07-23T14:16:58;20.35;;;19.02;;
22881;SDS011;11608;50.894;5.296;2022-07-23T14:19:24;18.92;;;17.73;;
22881;SDS011;11608;50.894;5.296;2022-07-23T14:21:50;18.48;;;17.38;;
22881;SDS011;11608;50.894;5.296;2022-07-23T14:24:16;19.75;;;18.55;;
22881;SDS011;11608;50.894;5.296;2022-07-23T14:26:44;20.02;;;18.73;;
22881;SDS011;11608;50.894;5.296;2022-07-23T14:29:11;19.95;;;18.65;;
22881;SDS011;11608;50.894;5.296;2022-07-23T14:31:37;20.33;;;19.08;;
22881;SDS011;11608;50.894;5.296;2022-07-23T14:34:03;19.75;;;18.50;;
22881;SDS011;11608;50.894;5.296;2022-07-23T14:36:29;19.30;;;18.10;;
22881;SDS011;11608;50.894;5.296;2022-07-23T14:38:55;20.40;;;19.00;;
22881;SDS011;11608;50.894;5.296;2022-07-23T14:41:21;20.33;;;18.92;;
22881;SDS011;11608;50.894;5.296;2022-07-23T14:43:50;19.48;;;18.27;;
22881;SDS011;11608;50.894;5.296;2022-07-23T14:46:16;19.30;;;18.10;;
22881;SDS011;11608;50.894;5.296;2022-07-23T14:48:42;20.00;;;18.67;;
22881;SDS011;11608;50.894;5.296;2022-07-23T14:51:08;20.50;;;19.20;;
22881;SDS011;11608;50.894;5.296;2022-07-23T14:53:34;20.00;;;18.70;;
22881;SDS011;11608;50.894;5.296;2022-07-23T14:56:00;19.92;;;18.73;;
22881;SDS011;11608;50.894;5.296;2022-07-23T14:58:27;19.98;;;18.67;;
22881;SDS011;11608;50.894;5.296;2022-07-23T15:00:54;19.65;;;18.25;;
22881;SDS011;11608;50.894;5.296;2022-07-23T15:03:20;19.55;;;18.30;;
22881;SDS011;11608;50.894;5.296;2022-07-23T15:05:47;19.70;;;18.50;;
22881;SDS011;11608;50.894;5.296;2022-07-23T15:08:13;19.15;;;17.95;;